createdAt,value
2022-12-25T00:02:23.494Z,31.25
2022-12-25T00:04:51.480Z,32.50
2022-12-25T00:07:19.398Z,31.50
2022-12-25T00:09:47.355Z,30.13
2022-12-25T00:12:16.789Z,31.70
2022-12-25T00:14:44.791Z,32.95
2022-12-25T00:17:12.682Z,32.95
2022-12-25T00:19:40.660Z,30.23
2022-12-25T00:22:08.574Z,28.95
2022-12-25T00:24:36.588Z,35.15
2022-12-25T00:27:04.724Z,31.48
2022-12-25T00:29:34.277Z,32.60
2022-12-25T00:32:02.759Z,31.45
2022-12-25T00:34:30.907Z,35.42
2022-12-25T00:36:58.849Z,36.40
2022-12-25T00:39:26.984Z,42.42
2022-12-25T00:42:12.044Z,34.83
2022-12-25T00:44:41.325Z,36.50
2022-12-25T00:47:09.346Z,32.30
2022-12-25T00:49:37.298Z,31.20
2022-12-25T00:52:05.733Z,28.25
2022-12-25T00:54:33.878Z,31.23
2022-12-25T00:57:01.848Z,31.08
2022-12-25T00:59:33.057Z,32.75
2022-12-25T01:02:23.091Z,29.75
2022-12-25T01:04:52.335Z,32.30
2022-12-25T01:07:20.836Z,32.58
2022-12-25T01:10:06.955Z,32.50
2022-12-25T01:12:37.933Z,32.65
2022-12-25T01:15:07.278Z,38.65
2022-12-25T01:17:36.862Z,32.83
2022-12-25T01:20:05.723Z,34.42
2022-12-25T01:22:33.659Z,31.23
2022-12-25T01:25:01.571Z,35.30
2022-12-25T01:27:29.490Z,31.40
2022-12-25T01:29:57.480Z,34.25
2022-12-25T01:32:25.953Z,32.67
2022-12-25T01:34:56.313Z,33.38
2022-12-25T01:37:25.173Z,34.22
2022-12-25T01:39:53.147Z,31.70
2022-12-25T01:42:23.687Z,34.42
2022-12-25T01:45:35.852Z,34.33
2022-12-25T01:48:08.481Z,29.70
2022-12-25T01:50:40.915Z,26.63
2022-12-25T01:53:09.633Z,28.50
2022-12-25T01:55:39.334Z,29.10
2022-12-25T01:58:07.643Z,31.35
2022-12-25T02:00:35.890Z,26.33
2022-12-25T02:03:05.001Z,28.27
2022-12-25T02:05:35.297Z,29.52
2022-12-25T02:08:09.703Z,28.90
2022-12-25T02:10:38.864Z,29.67
2022-12-25T02:13:08.069Z,28.70
2022-12-25T02:15:45.878Z,29.00
2022-12-25T02:18:21.403Z,32.72
2022-12-25T02:21:24.886Z,29.52
2022-12-25T02:24:23.119Z,30.20
2022-12-25T02:27:08.381Z,31.58
2022-12-25T02:29:48.089Z,30.67
2022-12-25T02:32:22.433Z,30.90
2022-12-25T02:34:54.443Z,33.97
2022-12-25T02:37:29.322Z,31.88
2022-12-25T02:40:03.557Z,31.20
2022-12-25T02:43:00.165Z,31.23
2022-12-25T02:45:53.442Z,31.95
2022-12-25T02:48:42.359Z,31.25
2022-12-25T02:51:32.722Z,30.85
2022-12-25T02:54:22.086Z,27.80
2022-12-25T02:57:09.030Z,31.42
2022-12-25T02:59:57.363Z,31.42
2022-12-25T03:02:46.575Z,33.22
2022-12-25T03:05:38.238Z,34.95
2022-12-25T03:08:11.465Z,33.47
2022-12-25T03:11:02.468Z,31.63
2022-12-25T03:13:35.569Z,31.08
2022-12-25T03:16:20.675Z,29.63
2022-12-25T03:18:50.061Z,29.45
2022-12-25T03:21:35.806Z,32.53
2022-12-25T03:24:23.338Z,32.40
2022-12-25T03:26:57.337Z,36.58
2022-12-25T03:29:40.685Z,36.47
2022-12-25T03:32:17.789Z,39.75
2022-12-25T03:35:15.824Z,37.90
2022-12-25T03:38:11.589Z,37.67
2022-12-25T03:43:53.474Z,37.65
2022-12-25T03:46:43.410Z,37.03
2022-12-25T03:49:38.379Z,38.38
2022-12-25T03:52:29.823Z,37.78
2022-12-25T03:55:17.829Z,39.80
2022-12-25T03:58:03.286Z,39.88
2022-12-25T04:03:48.078Z,41.40
2022-12-25T04:06:33.231Z,41.30
2022-12-25T04:09:20.198Z,37.40
2022-12-25T04:12:05.505Z,42.20
2022-12-25T04:15:05.405Z,40.72
2022-12-25T04:17:50.713Z,44.55
2022-12-25T04:20:36.105Z,36.17
2022-12-25T04:26:07.822Z,34.45
2022-12-25T04:28:53.036Z,33.58
2022-12-25T04:31:38.636Z,36.45
2022-12-25T04:34:23.720Z,36.80
2022-12-25T04:36:51.695Z,36.42
2022-12-25T04:39:19.762Z,35.67
2022-12-25T04:41:49.024Z,37.10
2022-12-25T04:44:16.999Z,35.28
2022-12-25T04:46:45.126Z,41.42
2022-12-25T04:49:13.101Z,39.03
2022-12-25T04:51:41.029Z,40.17
2022-12-25T04:54:08.943Z,38.13
2022-12-25T04:56:43.376Z,39.90
2022-12-25T04:59:14.914Z,40.70
2022-12-25T05:01:43.197Z,42.88
2022-12-25T05:04:11.407Z,43.65
2022-12-25T05:06:40.334Z,44.50
2022-12-25T05:09:08.628Z,42.90
2022-12-25T05:11:36.813Z,45.55
2022-12-25T05:14:04.873Z,42.38
2022-12-25T05:16:34.426Z,47.20
2022-12-25T05:19:02.554Z,51.25
2022-12-25T05:21:30.582Z,46.35
2022-12-25T05:23:58.570Z,47.13
2022-12-25T05:26:27.720Z,48.55
2022-12-25T05:28:56.441Z,43.92
2022-12-25T05:31:24.553Z,47.60
2022-12-25T05:33:53.971Z,50.40
2022-12-25T05:36:21.962Z,50.63
2022-12-25T05:38:49.960Z,49.55
2022-12-25T05:41:17.974Z,50.15
2022-12-25T05:43:46.153Z,47.08
2022-12-25T05:46:15.205Z,42.17
2022-12-25T05:48:43.290Z,44.10
2022-12-25T05:51:15.462Z,48.15
2022-12-25T05:53:44.374Z,52.75
2022-12-25T05:56:12.382Z,52.17
2022-12-25T05:58:41.934Z,53.47
2022-12-25T06:01:14.321Z,55.08
2022-12-25T06:03:42.403Z,53.53
2022-12-25T06:06:10.884Z,59.85
2022-12-25T06:08:40.278Z,59.55
2022-12-25T06:11:09.904Z,52.00
2022-12-25T06:13:38.596Z,58.78
2022-12-25T06:16:07.326Z,63.95
2022-12-25T06:18:37.180Z,55.28
2022-12-25T06:21:08.437Z,67.05
2022-12-25T06:23:36.703Z,59.38
2022-12-25T06:26:07.259Z,59.35
2022-12-25T06:28:35.508Z,58.58
2022-12-25T06:31:07.668Z,59.03
2022-12-25T06:33:35.639Z,57.90
2022-12-25T06:36:07.263Z,57.80
2022-12-25T06:38:35.271Z,62.20
2022-12-25T06:41:10.400Z,55.67
2022-12-25T06:43:38.797Z,55.22
2022-12-25T06:46:09.640Z,52.47
2022-12-25T06:48:39.132Z,49.03
2022-12-25T06:51:07.880Z,46.08
2022-12-25T06:53:40.421Z,42.95
2022-12-25T06:56:15.429Z,44.45
2022-12-25T06:58:45.048Z,44.05
2022-12-25T07:01:19.747Z,46.78
2022-12-25T07:03:49.935Z,44.20
2022-12-25T07:06:17.879Z,47.17
2022-12-25T07:08:45.825Z,50.40
2022-12-25T07:11:15.356Z,49.60
2022-12-25T07:13:43.295Z,46.78
2022-12-25T07:16:12.775Z,48.33
2022-12-25T07:18:41.781Z,48.65
2022-12-25T07:21:11.856Z,47.25
2022-12-25T07:23:40.203Z,55.30
2022-12-25T07:26:08.701Z,49.67
2022-12-25T07:28:38.197Z,51.22
2022-12-25T07:31:08.086Z,47.30
2022-12-25T07:33:36.172Z,47.45
2022-12-25T07:36:05.418Z,47.28
2022-12-25T07:38:33.581Z,49.00
2022-12-25T07:41:01.646Z,52.30
2022-12-25T07:43:29.746Z,47.92
2022-12-25T07:46:00.898Z,50.60
2022-12-25T07:48:29.642Z,47.42
2022-12-25T07:50:59.567Z,53.42
2022-12-25T07:53:27.901Z,48.78
2022-12-25T07:56:00.332Z,50.70
2022-12-25T07:58:28.946Z,52.28
2022-12-25T08:00:57.340Z,48.70
2022-12-25T08:03:26.834Z,45.05
2022-12-25T08:05:54.886Z,46.58
2022-12-25T08:08:22.903Z,48.88
2022-12-25T08:10:50.811Z,47.08
2022-12-25T08:13:18.997Z,52.97
2022-12-25T08:15:46.969Z,50.65
2022-12-25T08:18:15.365Z,48.38
2022-12-25T08:20:44.671Z,46.88
2022-12-25T08:23:12.607Z,48.58
2022-12-25T08:25:40.500Z,46.92
2022-12-25T08:28:08.471Z,54.90
2022-12-25T08:30:39.253Z,52.95
2022-12-25T08:33:07.684Z,52.47
2022-12-25T08:35:36.527Z,43.83
2022-12-25T08:38:05.869Z,46.72
2022-12-25T08:40:33.913Z,46.97
2022-12-25T08:43:01.865Z,41.20
2022-12-25T08:45:34.767Z,45.88
2022-12-25T08:48:03.422Z,46.72
2022-12-25T08:50:31.507Z,46.33
2022-12-25T08:52:59.420Z,42.30
2022-12-25T08:55:28.897Z,43.70
2022-12-25T08:57:56.937Z,42.33
2022-12-25T09:00:25.033Z,46.20
2022-12-25T09:02:53.073Z,46.17
2022-12-25T09:05:21.104Z,45.50
2022-12-25T09:07:49.096Z,43.78
2022-12-25T09:10:17.272Z,40.83
2022-12-25T09:12:46.688Z,39.65
2022-12-25T09:15:14.645Z,43.08
2022-12-25T09:17:42.625Z,39.15
2022-12-25T09:20:11.016Z,42.10
2022-12-25T09:22:38.988Z,35.83
2022-12-25T09:25:07.375Z,36.72
2022-12-25T09:27:35.404Z,38.38
2022-12-25T09:30:05.418Z,31.70
2022-12-25T09:32:33.339Z,36.42
2022-12-25T09:35:01.277Z,36.92
2022-12-25T09:37:29.587Z,36.30
2022-12-25T09:39:57.703Z,34.75
2022-12-25T09:42:31.281Z,36.47
2022-12-25T09:45:03.689Z,36.05
2022-12-25T09:47:43.702Z,35.10
2022-12-25T09:50:15.153Z,33.20
2022-12-25T09:52:47.733Z,33.30
2022-12-25T09:55:20.644Z,28.85
2022-12-25T09:57:52.530Z,34.20
2022-12-25T10:00:22.188Z,30.00
2022-12-25T10:03:12.133Z,34.30
2022-12-25T10:05:54.055Z,30.13
2022-12-25T10:08:36.689Z,31.83
2022-12-25T10:11:13.352Z,27.23
2022-12-25T10:13:59.766Z,33.67
2022-12-25T10:16:36.140Z,28.65
2022-12-25T10:19:19.215Z,29.65
2022-12-25T10:21:47.678Z,26.70
2022-12-25T10:24:26.781Z,28.48
2022-12-25T10:26:56.759Z,25.15
2022-12-25T10:29:24.844Z,23.45
2022-12-25T10:31:56.873Z,30.90
2022-12-25T10:34:27.731Z,20.60
2022-12-25T10:36:56.084Z,19.73
2022-12-25T10:39:27.529Z,22.05
2022-12-25T10:42:12.049Z,21.15
2022-12-25T10:44:40.002Z,19.50
2022-12-25T10:47:08.022Z,19.75
2022-12-25T10:49:39.936Z,24.80
2022-12-25T10:52:20.667Z,27.92
2022-12-25T10:54:49.018Z,19.70
2022-12-25T10:57:19.413Z,19.70
2022-12-25T10:59:49.818Z,16.92
2022-12-25T11:02:23.413Z,22.00
2022-12-25T11:04:59.451Z,19.00
2022-12-25T11:07:28.193Z,20.95
2022-12-25T11:10:04.680Z,20.50
2022-12-25T11:12:37.340Z,24.50
2022-12-25T11:15:08.164Z,20.50
2022-12-25T11:17:37.000Z,21.13
2022-12-25T11:20:18.452Z,22.65
2022-12-25T11:22:47.985Z,20.90
2022-12-25T11:25:22.167Z,23.10
2022-12-25T11:27:58.819Z,21.98
2022-12-25T11:30:26.962Z,22.48
2022-12-25T11:32:56.513Z,18.20
2022-12-25T11:35:31.681Z,20.65
2022-12-25T11:37:59.989Z,25.70
2022-12-25T11:40:44.278Z,25.55
2022-12-25T11:43:15.929Z,21.65
2022-12-25T11:45:53.810Z,21.95
2022-12-25T11:48:28.954Z,18.23
2022-12-25T11:51:01.399Z,19.80
2022-12-25T11:53:33.234Z,20.90
2022-12-25T11:56:04.262Z,18.73
2022-12-25T11:58:36.844Z,18.70
2022-12-25T12:01:09.277Z,21.15
2022-12-25T12:03:39.778Z,20.00
2022-12-25T12:06:16.413Z,22.33
2022-12-25T12:08:45.479Z,21.58
2022-12-25T12:11:20.813Z,19.25
2022-12-25T12:14:02.744Z,21.10
2022-12-25T12:16:31.290Z,25.95
2022-12-25T12:18:59.359Z,19.45
2022-12-25T12:21:31.752Z,19.65
2022-12-25T12:24:05.788Z,19.20
2022-12-25T12:26:38.202Z,23.57
2022-12-25T12:29:08.112Z,19.48
2022-12-25T12:31:42.918Z,21.73
2022-12-25T12:34:22.905Z,24.20
2022-12-25T12:36:57.574Z,20.75
2022-12-25T12:39:34.824Z,18.75
2022-12-25T12:42:03.218Z,18.08
2022-12-25T12:44:34.803Z,21.85
2022-12-25T12:47:02.818Z,21.45
2022-12-25T12:49:33.686Z,20.98
2022-12-25T12:52:08.224Z,19.65
2022-12-25T12:54:53.570Z,22.88
2022-12-25T12:59:52.618Z,20.20
2022-12-25T13:02:45.510Z,20.67
2022-12-25T13:05:21.499Z,21.75
2022-12-25T13:08:01.165Z,21.58
2022-12-25T13:10:33.639Z,18.27
2022-12-25T13:13:04.777Z,19.80
2022-12-25T13:15:36.053Z,20.52
2022-12-25T13:18:08.012Z,17.73
2022-12-25T13:20:44.786Z,18.05
2022-12-25T13:23:27.112Z,20.67
2022-12-25T13:25:56.077Z,17.15
2022-12-25T13:28:29.101Z,17.52
2022-12-25T13:31:03.661Z,18.83
2022-12-25T13:33:31.746Z,20.92
2022-12-25T13:36:00.135Z,17.58
2022-12-25T13:38:30.302Z,20.10
2022-12-25T13:41:17.088Z,18.98
2022-12-25T13:43:46.220Z,22.48
2022-12-25T13:46:15.459Z,18.98
2022-12-25T13:48:43.962Z,19.13
2022-12-25T13:51:16.875Z,21.83
2022-12-25T13:53:46.308Z,17.20
2022-12-25T13:56:16.772Z,19.50
2022-12-25T13:58:48.581Z,18.40
2022-12-25T14:01:18.525Z,15.63
2022-12-25T14:03:48.804Z,20.10
2022-12-25T14:06:20.574Z,16.67
2022-12-25T14:08:50.918Z,16.63
2022-12-25T14:11:21.649Z,18.50
2022-12-25T14:13:52.973Z,21.08
2022-12-25T14:16:25.319Z,19.70
2022-12-25T14:18:55.400Z,21.23
2022-12-25T14:21:28.611Z,21.67
2022-12-25T14:23:58.279Z,21.42
2022-12-25T14:26:29.350Z,22.13
2022-12-25T14:29:13.981Z,23.58
2022-12-25T14:31:45.340Z,21.55
2022-12-25T14:34:18.444Z,28.33
2022-12-25T14:36:47.025Z,25.23
2022-12-25T14:39:34.932Z,26.70
2022-12-25T14:42:12.997Z,26.50
2022-12-25T14:44:41.843Z,29.48
2022-12-25T14:47:21.513Z,30.48
2022-12-25T14:49:49.767Z,39.75
2022-12-25T14:52:22.598Z,31.73
2022-12-25T14:54:55.473Z,27.42
2022-12-25T14:57:30.009Z,29.80
2022-12-25T15:00:01.513Z,28.83
2022-12-25T15:02:40.921Z,27.60
2022-12-25T15:05:28.541Z,33.20
2022-12-25T15:08:02.197Z,30.83
2022-12-25T15:10:59.464Z,28.95
2022-12-25T15:13:19.988Z,31.83
2022-12-25T15:15:54.547Z,46.35
2022-12-25T15:18:24.889Z,37.45
2022-12-25T15:20:54.293Z,44.92
2022-12-25T15:23:22.341Z,35.25
2022-12-25T15:25:52.095Z,37.70
2022-12-25T15:28:20.922Z,35.03
2022-12-25T15:30:50.831Z,39.38
2022-12-25T15:33:19.767Z,36.97
2022-12-25T15:35:48.924Z,37.42
2022-12-25T15:38:16.905Z,40.97
2022-12-25T15:40:44.846Z,42.38
2022-12-25T15:43:40.470Z,49.15
2022-12-25T15:46:04.727Z,47.08
2022-12-25T15:48:32.736Z,46.22
2022-12-25T15:51:00.696Z,40.75
2022-12-25T15:53:28.572Z,39.05
2022-12-25T15:55:56.594Z,41.97
2022-12-25T15:58:25.918Z,42.50
2022-12-25T16:00:53.844Z,43.75
2022-12-25T16:03:21.891Z,43.22
2022-12-25T16:05:50.272Z,42.03
2022-12-25T16:08:18.255Z,45.05
2022-12-25T16:10:46.361Z,41.90
2022-12-25T16:13:14.626Z,45.17
2022-12-25T16:15:45.075Z,45.72
2022-12-25T16:18:13.222Z,49.08
2022-12-25T16:20:41.194Z,49.92
2022-12-25T16:23:09.231Z,53.38
2022-12-25T16:25:37.138Z,48.22
2022-12-25T16:28:06.198Z,45.25
2022-12-25T16:30:34.848Z,51.53
2022-12-25T16:33:04.311Z,54.30
2022-12-25T16:35:32.637Z,48.67
2022-12-25T16:38:01.308Z,55.40
2022-12-25T16:40:29.591Z,48.88
2022-12-25T16:42:57.758Z,52.63
2022-12-25T16:45:25.862Z,55.50
2022-12-25T16:47:53.810Z,59.90
2022-12-25T16:50:23.482Z,51.97
2022-12-25T16:52:51.516Z,52.22
2022-12-25T16:55:21.647Z,55.58
2022-12-25T16:57:53.111Z,59.20
2022-12-25T17:00:22.122Z,52.45
2022-12-25T17:02:50.216Z,57.50
2022-12-25T17:05:18.449Z,57.97
2022-12-25T17:07:47.745Z,56.10
2022-12-25T17:10:15.752Z,59.47
2022-12-25T17:12:45.646Z,58.10
2022-12-25T17:15:13.739Z,61.28
2022-12-25T17:17:41.755Z,59.22
2022-12-25T17:20:10.466Z,58.63
2022-12-25T17:22:38.387Z,63.63
2022-12-25T17:25:08.359Z,65.18
2022-12-25T17:27:36.294Z,67.63
2022-12-25T17:30:04.421Z,69.93
2022-12-25T17:32:32.398Z,69.90
2022-12-25T17:35:00.293Z,71.05
2022-12-25T17:37:28.247Z,67.95
2022-12-25T17:39:56.203Z,65.18
2022-12-25T17:42:25.581Z,68.20
2022-12-25T17:44:53.554Z,66.43
2022-12-25T17:47:21.560Z,73.13
2022-12-25T17:49:49.467Z,72.18
2022-12-25T17:52:17.403Z,82.18
2022-12-25T17:54:45.375Z,86.50
2022-12-25T17:57:13.274Z,93.20
2022-12-25T17:59:42.719Z,85.53
2022-12-25T18:02:12.155Z,92.65
2022-12-25T18:04:40.231Z,80.70
2022-12-25T18:07:08.334Z,98.03
2022-12-25T18:09:36.386Z,93.20
2022-12-25T18:12:04.538Z,95.60
2022-12-25T18:14:32.542Z,96.70
2022-12-25T18:17:01.846Z,90.72
2022-12-25T18:19:29.785Z,101.82
2022-12-25T18:21:57.752Z,99.55
2022-12-25T18:24:25.843Z,93.70
2022-12-25T18:26:53.783Z,106.25
2022-12-25T18:29:22.462Z,100.32
2022-12-25T18:31:52.521Z,102.70
2022-12-25T18:34:22.290Z,117.00
2022-12-25T18:36:50.807Z,112.25
2022-12-25T18:39:20.040Z,117.07
2022-12-25T18:42:07.707Z,116.95
2022-12-25T18:44:35.918Z,116.70
2022-12-25T18:47:06.830Z,114.70
2022-12-25T18:49:40.023Z,122.93
2022-12-25T18:52:49.455Z,133.50
2022-12-25T18:54:57.472Z,132.05
2022-12-25T18:57:26.034Z,130.85
2022-12-25T18:59:54.935Z,125.07
2022-12-25T19:02:23.342Z,129.80
2022-12-25T19:04:55.107Z,128.93
2022-12-25T19:07:23.938Z,129.80
2022-12-25T19:09:52.672Z,152.65
2022-12-25T19:12:20.748Z,137.57
2022-12-25T19:14:49.009Z,157.60
2022-12-25T19:17:17.491Z,150.02
2022-12-25T19:19:45.950Z,147.40
2022-12-25T19:22:16.425Z,140.27
2022-12-25T19:24:44.731Z,148.40
2022-12-25T19:27:12.855Z,148.73
2022-12-25T19:29:40.981Z,179.15
2022-12-25T19:32:09.319Z,181.52
2022-12-25T19:34:37.841Z,170.98
2022-12-25T19:37:06.607Z,169.48
2022-12-25T19:39:36.244Z,186.15
2022-12-25T19:42:04.515Z,176.63
2022-12-25T19:44:32.645Z,144.48
2022-12-25T19:47:00.722Z,154.95
2022-12-25T19:49:28.776Z,173.32
2022-12-25T19:51:56.947Z,190.57
2022-12-25T19:54:25.143Z,204.10
2022-12-25T19:56:54.822Z,174.13
2022-12-25T19:59:24.010Z,176.77
2022-12-25T20:01:52.388Z,238.10
2022-12-25T20:04:20.926Z,173.50
2022-12-25T20:06:49.267Z,201.45
2022-12-25T20:09:21.281Z,227.77
2022-12-25T20:11:49.789Z,220.68
2022-12-25T20:14:19.900Z,212.02
2022-12-25T20:16:48.330Z,261.92
2022-12-25T20:19:16.797Z,219.48
2022-12-25T20:21:44.963Z,230.32
2022-12-25T20:24:12.949Z,220.23
2022-12-25T20:26:41.104Z,209.85
2022-12-25T20:29:09.073Z,183.65
2022-12-25T20:31:38.424Z,201.75
2022-12-25T20:34:08.484Z,202.88
2022-12-25T20:36:38.099Z,161.90
2022-12-25T20:39:08.897Z,197.35
2022-12-25T20:41:37.090Z,182.80
2022-12-25T20:44:06.609Z,200.40
2022-12-25T20:46:34.756Z,222.13
2022-12-25T20:49:04.561Z,261.23
2022-12-25T20:51:32.675Z,204.63
2022-12-25T20:54:01.121Z,220.77
2022-12-25T20:56:30.371Z,206.32
2022-12-25T20:59:00.353Z,194.15
2022-12-25T21:01:31.223Z,192.05
2022-12-25T21:04:00.140Z,223.55
2022-12-25T21:06:29.540Z,200.88
2022-12-25T21:08:57.608Z,157.85
2022-12-25T21:11:25.678Z,168.52
2022-12-25T21:13:54.345Z,174.85
2022-12-25T21:16:23.715Z,183.57
2022-12-25T21:18:55.439Z,139.98
2022-12-25T21:21:23.577Z,150.95
2022-12-25T21:23:52.964Z,119.78
2022-12-25T21:26:23.119Z,101.75
2022-12-25T21:28:53.190Z,190.48
2022-12-25T21:31:22.057Z,169.35
2022-12-25T21:33:51.790Z,149.18
2022-12-25T21:36:21.447Z,131.30
2022-12-25T21:38:53.389Z,151.80
2022-12-25T21:41:23.043Z,147.32
2022-12-25T21:43:51.902Z,182.57
2022-12-25T21:46:20.441Z,155.65
2022-12-25T21:48:49.281Z,165.35
2022-12-25T21:51:37.398Z,141.68
2022-12-25T21:54:06.275Z,159.20
2022-12-25T21:56:43.592Z,165.70
2022-12-25T21:59:14.589Z,259.92
2022-12-25T22:01:43.076Z,110.70
2022-12-25T22:04:11.852Z,248.88
2022-12-25T22:06:57.165Z,206.40
2022-12-25T22:09:25.287Z,142.75
2022-12-25T22:12:12.490Z,148.57
2022-12-25T22:14:55.243Z,128.25
2022-12-25T22:17:43.624Z,158.45
2022-12-25T22:20:14.075Z,180.05
2022-12-25T22:22:42.062Z,109.43
2022-12-25T22:25:10.940Z,92.15
2022-12-25T22:27:42.245Z,134.25
2022-12-25T22:30:12.442Z,87.20
2022-12-25T22:32:41.047Z,132.50
2022-12-25T22:35:10.059Z,252.45
2022-12-25T22:37:38.095Z,102.07
2022-12-25T22:40:09.265Z,143.27
2022-12-25T22:42:37.286Z,231.88
2022-12-25T22:45:07.759Z,252.68
2022-12-25T22:47:36.141Z,176.00
2022-12-25T22:50:04.255Z,165.48
2022-12-25T22:52:32.344Z,136.85
2022-12-25T22:55:00.340Z,157.85
2022-12-25T22:57:28.291Z,270.90
2022-12-25T22:59:56.271Z,253.73
2022-12-25T23:02:26.064Z,156.82
2022-12-25T23:04:54.174Z,145.20
2022-12-25T23:07:22.272Z,294.02
2022-12-25T23:09:50.339Z,146.57
2022-12-25T23:12:35.727Z,123.93
2022-12-25T23:17:50.396Z,97.95
2022-12-25T23:20:36.136Z,121.35
2022-12-25T23:23:21.556Z,120.90
2022-12-25T23:28:52.956Z,105.45
2022-12-25T23:31:23.712Z,119.95
2022-12-25T23:33:53.103Z,111.82
2022-12-25T23:36:21.086Z,95.10
2022-12-25T23:38:49.117Z,130.73
2022-12-25T23:41:17.127Z,140.65
2022-12-25T23:43:45.125Z,102.95
2022-12-25T23:46:13.238Z,105.03
2022-12-25T23:48:41.169Z,152.30
2022-12-25T23:51:10.793Z,147.07
2022-12-25T23:53:38.726Z,137.38
2022-12-25T23:56:07.059Z,93.72
2022-12-25T23:58:35.185Z,130.43
